| time (UTC) | temp F | wind direction | speed knots | gust knots | rain 1hr in | rain 24hr in | rain mn in | humidity % | barometer mb |
| 20260906194119 | 95 | 238 | 8.7 | 14.8 | 0.00 | 0.00 | 0.00 | 52 | 1012.3 |
| 20260906193055 | 101 | 14 | 0.0 | 0.9 | 0.00 | 0.00 | 0.00 | 38 | 1012.3 |
| 20260906192103 | 101 | 185 | 1.7 | 2.6 | 0.00 | 0.00 | 0.00 | 38 | 1012.3 |
| 20260906191023 | 102 | 207 | 0.9 | 1.7 | 0.00 | 0.00 | 0.00 | 38 | 1012.2 |
| 20260906190031 | 102 | 233 | 2.6 | 5.2 | 0.00 | 0.00 | 0.00 | 37 | 1012.4 |
| 20260906185055 | 102 | 207 | 2.6 | 4.3 | 0.00 | 0.00 | 0.00 | 38 | 1012.4 |
| 20260906184103 | 103 | 172 | 1.7 | 4.3 | 0.00 | 0.00 | 0.00 | 37 | 1012.6 |
| 20260906183023 | 101 | 32 | 2.6 | 4.3 | 0.00 | 0.00 | 0.00 | 39 | 1012.7 |
| 20260906182118 | 104 | 236 | 1.7 | 4.3 | 0.00 | 0.00 | 0.00 | 36 | 1013.0 |
| 20260906181023 | 103 | 300 | 0.9 | 2.6 | 0.00 | 0.00 | 0.00 | 37 | 1013.1 |
| 20260906180036 | 106 | 114 | 1.7 | 4.3 | 0.00 | 0.00 | 0.00 | 35 | 1013.4 |
| 20260906175055 | 103 | 347 | 0.0 | 2.6 | 0.00 | 0.00 | 0.00 | 38 | 1013.6 |
| 20260906174047 | 103 | 204 | 1.7 | 5.2 | 0.00 | 0.00 | 0.00 | 38 | 1013.9 |
| 20260906173111 | 102 | 166 | 1.7 | 4.3 | 0.00 | 0.00 | 0.00 | 40 | 1014.0 |
| 20260906172031 | 102 | 244 | 3.5 | 6.1 | 0.00 | 0.00 | 0.00 | 40 | 1014.1 |
| 20260906171039 | 103 | 179 | 1.7 | 4.3 | 0.00 | 0.00 | 0.00 | 39 | 1014.3 |
| 20260906170047 | 103 | 210 | 0.9 | 2.6 | 0.00 | 0.00 | 0.00 | 40 | 1014.6 |
| 20260906165111 | 101 | 157 | 1.7 | 2.6 | 0.00 | 0.00 | 0.00 | 40 | 1014.5 |
| 20260906164031 | 100 | 230 | 1.7 | 2.6 | 0.00 | 0.00 | 0.00 | 40 | 1014.7 |
| 20260906163055 | 101 | 85 | 0.9 | 1.7 | 0.00 | 0.00 | 0.00 | 41 | 1014.6 |
| 20260906162119 | 99 | 171 | 0.9 | 1.7 | 0.00 | 0.00 | 0.00 | 43 | 1014.8 |
| 20260906161038 | 98 | 222 | 0.9 | 2.6 | 0.00 | 0.00 | 0.00 | 45 | 1014.7 |
| 20260906160103 | 98 | 178 | 0.9 | 2.6 | 0.00 | 0.00 | 0.00 | 46 | 1014.7 |
| 20260906155023 | 97 | 178 | 0.9 | 1.7 | 0.00 | 0.00 | 0.00 | 49 | 1014.6 |
| 20260906154047 | 96 | 198 | 0.9 | 1.7 | 0.00 | 0.00 | 0.00 | 48 | 1014.7 |
| 20260906153111 | 96 | 251 | 0.9 | 2.6 | 0.00 | 0.00 | 0.00 | 50 | 1014.7 |
| 20260906152119 | 95 | 155 | 1.7 | 1.7 | 0.00 | 0.00 | 0.00 | 51 | 1014.6 |
| 20260906151023 | 94 | 157 | 0.0 | 0.9 | 0.00 | 0.00 | 0.00 | 53 | 1014.6 |
| 20260906150031 | 93 | 175 | 0.0 | 1.7 | 0.00 | 0.00 | 0.00 | 55 | 1014.5 |
| 20260906145055 | 91 | 159 | 0.9 | 1.7 | 0.00 | 0.00 | 0.00 | 57 | 1014.5 |
| 20260906144119 | 91 | 124 | 0.9 | 0.9 | 0.00 | 0.00 | 0.00 | 58 | 1014.5 |
| 20260906143039 | 90 | 181 | 0.9 | 1.7 | 0.00 | 0.00 | 0.00 | 59 | 1014.5 |
| 20260906142103 | 89 | 125 | 0.9 | 1.7 | 0.00 | 0.00 | 0.00 | 61 | 1014.5 |
| 20260906141111 | 87 | 105 | 0.0 | 0.9 | 0.00 | 0.00 | 0.00 | 64 | 1014.5 |
| 20260906140031 | 85 | 108 | 0.0 | 0.9 | 0.00 | 0.00 | 0.00 | 67 | 1014.3 |
| 20260906135055 | 83 | 88 | 0.0 | 0.9 | 0.00 | 0.00 | 0.00 | 72 | 1014.3 |
| 20260906134120 | 82 | 93 | 0.0 | 0.9 | 0.00 | 0.00 | 0.00 | 74 | 1014.2 |
| 20260906133023 | 80 | 99 | 0.0 | 0.9 | 0.00 | 0.00 | 0.00 | 79 | 1014.1 |
| 20260906132047 | 79 | 100 | 0.0 | 0.9 | 0.00 | 0.00 | 0.00 | 82 | 1014.1 |
| 20260906131111 | 76 | 0.0 | 0.0 | 0.00 | 0.00 | 0.00 | 87 | 1013.9 | |
| 20260906130031 | 75 | 0.0 | 0.0 | 0.00 | 0.00 | 0.00 | 90 | 1013.8 | |
| 20260906125039 | 74 | 0.0 | 0.0 | 0.00 | 0.00 | 0.00 | 92 | 1013.6 | |
| 20260906124103 | 73 | 0.0 | 0.0 | 0.00 | 0.00 | 0.00 | 92 | 1013.6 | |
| 20260906123023 | 73 | 0.0 | 0.0 | 0.00 | 0.00 | 0.00 | 93 | 1013.4 | |
| 20260906122048 | 72 | 0.0 | 0.0 | 0.00 | 0.00 | 0.00 | 93 | 1013.3 | |
| 20260906121111 | 72 | 0.0 | 0.0 | 0.00 | 0.00 | 0.00 | 93 | 1013.3 | |
| 20260906120031 | 72 | 0.0 | 0.0 | 0.00 | 0.00 | 0.00 | 93 | 1013.3 | |
| 20260906115055 | 72 | 0.0 | 0.0 | 0.00 | 0.00 | 0.00 | 92 | 1013.3 | |
| 20260906114103 | 73 | 0.0 | 0.0 | 0.00 | 0.00 | 0.00 | 92 | 1013.3 | |
| 20260906113111 | 73 | 115 | 0.0 | 0.9 | 0.00 | 0.00 | 0.00 | 91 | 1013.2 |
| 20260906112031 | 73 | 46 | 0.0 | 0.9 | 0.00 | 0.00 | 0.00 | 90 | 1013.3 |
| 20260906111055 | 73 | 0.0 | 0.0 | 0.00 | 0.00 | 0.00 | 91 | 1013.2 | |
| 20260906110119 | 74 | 97 | 0.0 | 0.9 | 0.00 | 0.00 | 0.00 | 90 | 1013.1 |
| 20260906105023 | 74 | 0.0 | 0.0 | 0.00 | 0.00 | 0.00 | 89 | 1013.2 | |
| 20260906104047 | 74 | 168 | 0.0 | 0.9 | 0.00 | 0.00 | 0.00 | 89 | 1013.5 |
| 20260906103111 | 74 | 0.0 | 0.0 | 0.00 | 0.00 | 0.00 | 88 | 1013.2 | |
| 20260906102031 | 75 | 86 | 0.0 | 0.9 | 0.00 | 0.00 | 0.00 | 88 | 1013.3 |
| 20260906101055 | 75 | 0.0 | 0.0 | 0.00 | 0.00 | 0.00 | 88 | 1013.3 | |
| 20260906100119 | 75 | 0.0 | 0.0 | 0.00 | 0.00 | 0.00 | 88 | 1013.2 | |
| 20260906095023 | 75 | 0.0 | 0.0 | 0.00 | 0.00 | 0.00 | 87 | 1013.0 | |
| 20260906094047 | 75 | 0.0 | 0.0 | 0.00 | 0.00 | 0.00 | 87 | 1013.0 | |
| 20260906093111 | 75 | 84 | 0.0 | 0.9 | 0.00 | 0.00 | 0.00 | 87 | 1013.0 |
| 20260906092119 | 75 | 63 | 0.0 | 0.9 | 0.00 | 0.00 | 0.00 | 86 | 1012.8 |
| 20260906091039 | 75 | 93 | 0.0 | 0.9 | 0.00 | 0.00 | 0.00 | 86 | 1012.8 |
| 20260906090103 | 76 | 123 | 0.0 | 0.9 | 0.00 | 0.00 | 0.00 | 85 | 1012.9 |
| 20260906085024 | 76 | 59 | 0.0 | 0.9 | 0.00 | 0.00 | 0.00 | 84 | 1012.9 |
| 20260906084031 | 76 | 83 | 0.0 | 0.9 | 0.00 | 0.00 | 0.00 | 84 | 1012.8 |
| 20260906083055 | 75 | 175 | 0.9 | 2.6 | 0.00 | 0.00 | 0.00 | 85 | 1012.8 |
| 20260906082120 | 74 | 0.0 | 0.0 | 0.00 | 0.00 | 0.00 | 88 | 1012.6 | |
| 20260906081039 | 74 | 0.0 | 0.0 | 0.00 | 0.00 | 0.00 | 87 | 1012.4 | |
| 20260906080048 | 74 | 0.0 | 0.0 | 0.00 | 0.00 | 0.00 | 86 | 1012.4 | |
| 20260906075111 | 75 | 0.0 | 0.0 | 0.00 | 0.00 | 0.00 | 86 | 1012.5 | |
| 20260906074032 | 75 | 0.0 | 0.0 | 0.00 | 0.00 | 0.00 | 84 | 1012.4 | |
| 20260906073056 | 75 | 0.0 | 0.0 | 0.00 | 0.00 | 0.00 | 85 | 1012.5 | |
| 20260906072048 | 75 | 0.0 | 0.0 | 0.00 | 0.00 | 0.00 | 85 | 1012.5 | |
| 20260906071055 | 75 | 0.0 | 0.0 | 0.00 | 0.00 | 0.00 | 84 | 1012.5 | |
| 20260906070120 | 75 | 0.0 | 0.0 | 0.00 | 0.00 | 0.00 | 83 | 1012.4 | |
| 20260906065040 | 75 | 0.0 | 0.0 | 0.00 | 0.00 | 0.00 | 83 | 1012.5 | |
| 20260906064104 | 75 | 0.0 | 0.0 | 0.00 | 0.00 | 0.00 | 83 | 1012.6 | |
| 20260906063111 | 75 | 0.0 | 0.0 | 0.00 | 0.00 | 0.00 | 83 | 1012.6 | |
| 20260906062032 | 75 | 0.0 | 0.0 | 0.00 | 0.00 | 0.00 | 83 | 1012.5 | |
| 20260906061056 | 76 | 0.0 | 0.0 | 0.00 | 0.00 | 0.00 | 83 | 1012.4 | |
| 20260906060120 | 76 | 0.0 | 0.0 | 0.00 | 0.00 | 0.00 | 83 | 1012.4 | |
| 20260906055040 | 76 | 0.0 | 0.0 | 0.00 | 0.00 | 0.00 | 81 | 1012.5 | |
| 20260906054104 | 76 | 0.0 | 0.0 | 0.00 | 0.00 | 0.00 | 81 | 1012.6 | |
| 20260906053112 | 76 | 0.0 | 0.0 | 0.00 | 0.00 | 0.00 | 81 | 1012.6 | |
| 20260906052032 | 76 | 0.0 | 0.0 | 0.00 | 0.00 | 0.00 | 80 | 1012.7 | |
| 20260906051040 | 77 | 0.0 | 0.0 | 0.00 | 0.00 | 0.00 | 79 | 1012.5 | |
| 20260906050105 | 77 | 0.0 | 0.0 | 0.00 | 0.00 | 0.00 | 78 | 1012.6 | |
| 20260906045023 | 77 | 0.0 | 0.0 | 0.00 | 0.00 | 0.00 | 78 | 1012.5 | |
| 20260906044048 | 78 | 0.0 | 0.0 | 0.00 | 0.00 | 0.00 | 78 | 1012.5 | |
| 20260906043056 | 78 | 0.0 | 0.0 | 0.00 | 0.00 | 0.00 | 78 | 1012.5 | |
| 20260906042104 | 78 | 0.0 | 0.0 | 0.00 | 0.00 | 0.00 | 77 | 1012.5 | |
| 20260906041056 | 78 | 0.0 | 0.0 | 0.00 | 0.00 | 0.00 | 77 | 1012.4 | |
| 20260906040130 | 78 | 0.0 | 0.0 | 0.00 | 0.00 | 0.00 | 76 | 1012.5 | |
| 20260906035040 | 79 | 0.0 | 0.0 | 0.00 | 0.00 | 0.00 | 75 | 1012.5 | |
| 20260906034104 | 79 | 0.0 | 0.0 | 0.00 | 0.00 | 0.00 | 74 | 1012.4 | |
| 20260906033112 | 79 | 0.0 | 0.0 | 0.00 | 0.00 | 0.00 | 74 | 1012.4 | |
| 20260906032136 | 80 | 0.0 | 0.0 | 0.00 | 0.00 | 0.00 | 74 | 1012.4 | |
| 20260906031033 | 80 | 0.0 | 0.0 | 0.00 | 0.00 | 0.00 | 73 | 1012.1 | |
| 20260906030048 | 80 | 0.0 | 0.0 | 0.00 | 0.00 | 0.00 | 73 | 1012.1 | |
| 20260906025114 | 80 | 0.0 | 0.0 | 0.00 | 0.00 | 0.00 | 72 | 1011.8 | |
| 20260906024033 | 81 | 0.0 | 0.0 | 0.00 | 0.00 | 0.00 | 72 | 1011.7 | |
| 20260906023056 | 82 | 0.0 | 0.0 | 0.00 | 0.00 | 0.00 | 70 | 1011.5 | |
| 20260906022104 | 82 | 0.0 | 0.0 | 0.00 | 0.00 | 0.00 | 69 | 1011.3 | |
| 20260906021056 | 83 | 0.0 | 0.0 | 0.00 | 0.00 | 0.00 | 68 | 1011.2 | |
| 20260906020104 | 84 | 0.0 | 0.0 | 0.00 | 0.00 | 0.00 | 65 | 1011.3 | |
| 20260906015024 | 84 | 0.0 | 0.0 | 0.00 | 0.00 | 0.00 | 65 | 1011.1 | |
| 20260906014038 | 85 | 0.0 | 0.0 | 0.00 | 0.00 | 0.00 | 63 | 1011.0 | |
| 20260906013112 | 85 | 0.0 | 0.0 | 0.00 | 0.00 | 0.00 | 62 | 1010.7 | |
| 20260906012032 | 86 | 0.0 | 0.0 | 0.00 | 0.00 | 0.00 | 60 | 1010.6 | |
| 20260906011056 | 88 | 0.0 | 0.0 | 0.00 | 0.00 | 0.00 | 57 | 1010.7 | |
| 20260906010120 | 89 | 0.0 | 0.0 | 0.00 | 0.00 | 0.00 | 54 | 1010.7 | |
| 20260906005033 | 91 | 0.0 | 0.0 | 0.00 | 0.00 | 0.00 | 50 | 1010.6 | |
| 20260906004104 | 93 | 0.0 | 0.0 | 0.00 | 0.00 | 0.00 | 48 | 1010.8 | |
| 20260906003024 | 96 | 0.0 | 0.0 | 0.00 | 0.00 | 0.00 | 44 | 1010.9 | |
| 20260906002038 | 97 | 168 | 0.0 | 0.9 | 0.00 | 0.00 | 0.00 | 42 | 1011.1 |
| 20260906001056 | 98 | 187 | 1.7 | 2.6 | 0.00 | 0.00 | 0.00 | 41 | 1011.1 |
| 20260906000121 | 99 | 183 | 1.7 | 2.6 | 0.00 | 0.00 | 0.00 | 39 | 1011.0 |
| 20260905235112 | 100 | 197 | 1.7 | 4.3 | 0.00 | 0.00 | 0.00 | 39 | 1011.0 |
| 20260905234032 | 101 | 152 | 0.9 | 2.6 | 0.00 | 0.00 | 0.00 | 38 | 1010.8 |
| 20260905233056 | 101 | 185 | 1.7 | 2.6 | 0.00 | 0.00 | 0.00 | 38 | 1010.8 |
| 20260905232120 | 102 | 167 | 2.6 | 4.3 | 0.00 | 0.00 | 0.00 | 37 | 1010.8 |
| 20260905231025 | 101 | 185 | 2.6 | 4.3 | 0.00 | 0.00 | 0.00 | 38 | 1010.8 |
| 20260905230049 | 102 | 195 | 2.6 | 6.1 | 0.00 | 0.00 | 0.00 | 37 | 1010.9 |
| 20260905225113 | 102 | 127 | 0.9 | 1.7 | 0.00 | 0.00 | 0.00 | 37 | 1010.9 |
| 20260905224120 | 103 | 140 | 0.9 | 2.6 | 0.00 | 0.00 | 0.00 | 36 | 1010.8 |
| 20260905223025 | 103 | 118 | 0.0 | 1.7 | 0.00 | 0.00 | 0.00 | 37 | 1011.0 |
| 20260905222038 | 103 | 139 | 1.7 | 4.3 | 0.00 | 0.00 | 0.00 | 36 | 1010.9 |
| 20260905221113 | 103 | 171 | 1.7 | 4.3 | 0.00 | 0.00 | 0.00 | 36 | 1010.9 |
| 20260905220120 | 103 | 120 | 0.9 | 4.3 | 0.00 | 0.00 | 0.00 | 37 | 1011.0 |
| 20260905215025 | 103 | 199 | 2.6 | 4.3 | 0.00 | 0.00 | 0.00 | 38 | 1011.1 |
| 20260905214038 | 102 | 210 | 2.6 | 5.2 | 0.00 | 0.00 | 0.00 | 37 | 1011.1 |
| 20260905213112 | 103 | 196 | 5.2 | 8.7 | 0.00 | 0.00 | 0.00 | 38 | 1011.3 |
| 20260905212032 | 102 | 210 | 3.5 | 7.8 | 0.00 | 0.00 | 0.00 | 38 | 1011.4 |
| 20260905211034 | 103 | 208 | 4.3 | 7.8 | 0.00 | 0.00 | 0.00 | 39 | 1011.6 |
| 20260905210104 | 103 | 184 | 2.6 | 5.2 | 0.00 | 0.00 | 0.00 | 39 | 1011.8 |
| 20260905205024 | 100 | 177 | 0.9 | 4.3 | 0.00 | 0.00 | 0.00 | 41 | 1011.9 |
| 20260905204038 | 100 | 152 | 1.7 | 5.2 | 0.00 | 0.00 | 0.00 | 41 | 1012.0 |
| 20260905203112 | 102 | 127 | 3.5 | 7.0 | 0.00 | 0.00 | 0.00 | 39 | 1012.2 |
| 20260905202120 | 101 | 129 | 2.6 | 8.7 | 0.00 | 0.00 | 0.00 | 39 | 1012.3 |
| 20260905201033 | 103 | 200 | 3.5 | 7.0 | 0.00 | 0.00 | 0.00 | 38 | 1012.5 |
| 20260905200049 | 103 | 204 | 4.3 | 8.7 | 0.00 | 0.00 | 0.00 | 39 | 1012.6 |
| 20260905195113 | 103 | 154 | 1.7 | 5.2 | 0.00 | 0.00 | 0.00 | 40 | 1012.5 |